EGJJ

Jersey Airport

Saint Helier, Jersey
METAR EGJJ 280050Z AUTO 09008KT CAVOK 16/13 Q1016
Observed Flight Rules
May-28 @ 00:50 UTC (24 minutes ago) Visual Flight Rules
Wind Visibility Clouds
90° at 8 knots 10,000+ meters
  • Clear skies
Temperatures Readings
Current 16°C / 61°F
Dewpoint 13°C / 55°F
Humidity 83%
Altimeter 30" Hg
Pressure 1016 hPa
Elevation 84
METAR EGJJ 280050Z AUTO 09008KT CAVOK 16/13 Q1016
Observed Flight Rules
May-28 @ 00:50 UTC
(24 minutes ago)
VFR
Wind Visibility
90° at 8 knots 10,000+ meters
Clouds
  • Clear skies
Temperature Dewpoint
16°C / 61°F 13°C / 55°F
Humidity Altimeter Pressure
83% 30" Hg 1016 hPa